Emery, Utah
Current Conditions -  °F | °C
As of 3:55 PM on Tuesday 21 Oct 2014 (Local Time) from KHVE Reporting Station
Clear Clear  
Wind Chill: 77°   Ceiling: Unl
Heat Index: 77°   Visibility: 10mi
Dew Point: 34°   Wind: 12mph
Humidity: 21%   Direction: 220°SW
Pressure: 29.91"   Gusts: 17mph
Location:  38.92°N, 111.25°W
Report Text: KHVE 212155Z AUTO 22010G15KT 10SM CLR 25/01 A2991 RMK AO2
Loading
Personal Weather Stations






























Interactive Weather Map
Tropical Storm Tracking
New forecast layout! Learn more

10-Day Weather Forecast

Advertisements
Track Severe Weather on mobile